Time;durP1;ratioP1;P1;durP2;ratioP2;P2;SDS_P1;SDS_P2;PMS_P1;PMS_P2;Temp;Humidity;BMP_temperature;BMP_pressure;BME280_temperature;BME280_humidity;BME280_pressure;Samples;Min_cycle;Max_cycle;Signal;HPM_P1;HPM_P2
2023/05/02 00:00:44;;;;;;;8.23;4.83;;;;;;;13.22;76.75;95493.75;5007684;28;20237;-88
2023/05/02 00:03:10;;;;;;;8.63;4.83;;;;;;;13.30;76.35;95486.44;5027140;28;20233;-85
2023/05/02 00:05:35;;;;;;;6.73;4.90;;;;;;;13.38;75.95;95491.53;5024129;28;20734;-86
2023/05/02 00:08:01;;;;;;;7.33;4.70;;;;;;;13.37;76.28;95497.00;5033243;28;20231;-85
2023/05/02 00:10:26;;;;;;;7.10;4.63;;;;;;;13.35;76.38;95493.75;5031018;28;20226;-87
2023/05/02 00:12:52;;;;;;;6.50;4.57;;;;;;;13.41;75.38;95496.38;5010381;28;20226;-87
2023/05/02 00:15:17;;;;;;;6.73;4.40;;;;;;;13.44;75.71;95493.34;5012633;28;20244;-84
2023/05/02 00:17:43;;;;;;;6.37;4.90;;;;;;;13.39;75.74;95490.53;5014445;28;20223;-83
2023/05/02 00:20:10;;;;;;;8.53;4.77;;;;;;;13.36;76.07;95496.19;5027175;28;20338;-84
2023/05/02 00:22:36;;;;;;;7.13;4.83;;;;;;;13.20;76.59;95488.69;5030329;28;20225;-86
2023/05/02 00:25:01;;;;;;;7.90;4.90;;;;;;;13.26;76.53;95502.84;5028425;28;20309;-85
2023/05/02 00:27:27;;;;;;;8.27;4.97;;;;;;;13.13;77.37;95495.78;5042563;28;20262;-84
2023/05/02 00:29:53;;;;;;;8.53;4.70;;;;;;;13.18;77.17;95503.84;5017934;28;20227;-84
2023/05/02 00:32:18;;;;;;;6.30;4.70;;;;;;;13.16;77.22;95497.19;4999305;28;20245;-85
2023/05/02 00:34:44;;;;;;;7.10;4.60;;;;;;;13.23;76.86;95508.53;5032763;28;20286;-85
2023/05/02 00:37:09;;;;;;;5.77;5.00;;;;;;;13.36;76.21;95511.94;5017093;28;20237;-85
2023/05/02 00:39:35;;;;;;;6.53;4.90;;;;;;;13.40;76.16;95513.16;5034293;28;20231;-84
2023/05/02 00:42:00;;;;;;;7.27;4.53;;;;;;;13.52;75.41;95514.19;5045850;28;20229;-85
2023/05/02 00:44:26;;;;;;;9.70;4.70;;;;;;;13.54;76.28;95518.44;5027093;28;20219;-83
2023/05/02 00:46:52;;;;;;;6.10;4.60;;;;;;;13.49;75.58;95527.72;5037827;28;20313;-85
2023/05/02 00:49:18;;;;;;;6.33;4.77;;;;;;;13.56;75.58;95532.19;5023404;28;20260;-85
2023/05/02 00:51:43;;;;;;;6.93;4.70;;;;;;;13.52;75.47;95532.59;5020083;28;20617;-84
2023/05/02 00:54:09;;;;;;;7.97;4.67;;;;;;;13.50;75.98;95523.28;5051884;28;20261;-84
2023/05/02 00:56:35;;;;;;;7.10;4.80;;;;;;;13.42;76.41;95531.38;5028976;28;20234;-85
2023/05/02 00:59:01;;;;;;;7.47;5.03;;;;;;;13.52;75.83;95522.06;5045123;28;20229;-85
2023/05/02 01:01:54;;;;;;;7.00;4.90;;;;;;;13.56;75.61;95521.66;4999721;28;20233;-85
2023/05/02 01:04:39;;;;;;;7.93;5.03;;;;;;;13.34;77.25;95521.88;5033218;28;20227;-85
2023/05/02 01:07:15;;;;;;;9.23;4.83;;;;;;;13.38;76.64;95528.34;5041951;28;20247;-84
2023/05/02 01:09:40;;;;;;;7.80;5.07;;;;;;;13.37;77.46;95518.03;5030199;28;20233;-85
2023/05/02 01:12:22;;;;;;;6.70;4.90;;;;;;;13.24;77.59;95521.44;5033460;28;20727;-86
2023/05/02 01:14:51;;;;;;;6.47;5.10;;;;;;;13.02;79.46;95525.22;5027153;28;20230;-84
2023/05/02 01:17:17;;;;;;;8.70;4.90;;;;;;;12.92;79.91;95519.53;5017448;28;20302;-84
2023/05/02 01:19:43;;;;;;;8.50;4.87;;;;;;;12.90;79.68;95518.16;5010746;28;20242;-85
2023/05/02 01:22:09;;;;;;;8.47;5.50;;;;;;;12.89;80.30;95527.03;5021121;28;20229;-85
2023/05/02 01:24:50;;;;;;;7.73;5.10;;;;;;;12.75;81.57;95523.56;5003298;28;20309;-85
2023/05/02 01:27:38;;;;;;;9.37;5.00;;;;;;;12.63;82.12;95522.50;5027271;28;20301;-85
2023/05/02 01:30:04;;;;;;;8.23;5.10;;;;;;;12.77;81.00;95511.84;5020870;28;20238;-84
2023/05/02 01:32:32;;;;;;;8.17;5.30;;;;;;;12.75;81.34;95508.59;5003779;28;20241;-86
2023/05/02 01:34:57;;;;;;;7.80;4.70;;;;;;;12.83;81.23;95507.59;5018758;28;20227;-85
2023/05/02 01:37:23;;;;;;;6.93;5.10;;;;;;;12.91;80.74;95514.50;5006935;28;20233;-83
2023/05/02 01:39:48;;;;;;;7.43;5.23;;;;;;;12.82;80.85;95512.03;5006543;28;20231;-83
2023/05/02 01:42:14;;;;;;;9.27;5.00;;;;;;;12.91;80.90;95512.69;5027161;28;20226;-84
2023/05/02 01:44:39;;;;;;;7.83;4.97;;;;;;;12.94;81.03;95519.34;5023914;28;20331;-86
2023/05/02 01:47:05;;;;;;;8.30;5.30;;;;;;;12.96;80.57;95515.53;5020697;28;20253;-85
2023/05/02 01:49:32;;;;;;;6.77;4.90;;;;;;;12.99;80.45;95519.56;5035836;28;20227;-84
2023/05/02 01:51:57;;;;;;;8.50;5.10;;;;;;;13.00;80.30;95523.81;5033960;28;20630;-86
2023/05/02 01:54:23;;;;;;;6.73;5.10;;;;;;;12.94;80.69;95519.34;5022813;28;20226;-82
2023/05/02 01:56:48;;;;;;;8.63;4.87;;;;;;;12.97;80.61;95514.50;5013296;28;20234;-82
2023/05/02 01:59:21;;;;;;;7.73;5.30;;;;;;;12.93;81.26;95521.16;5017934;28;20234;-81
2023/05/02 02:01:47;;;;;;;8.37;5.30;;;;;;;12.87;81.50;95516.72;5007646;28;20233;-84
2023/05/02 02:04:15;;;;;;;7.47;5.10;;;;;;;12.89;81.52;95514.69;4998720;28;20238;-86
2023/05/02 02:06:43;;;;;;;8.50;5.20;;;;;;;12.71;82.23;95510.00;5009785;28;20293;-88
2023/05/02 02:09:08;;;;;;;7.80;5.10;;;;;;;12.79;81.98;95506.38;5040807;28;20317;-84
2023/05/02 02:11:35;;;;;;;6.30;5.03;;;;;;;12.78;81.79;95508.19;5031453;28;20240;-86
2023/05/02 02:14:05;;;;;;;8.87;5.00;;;;;;;12.80;81.89;95516.69;5027027;28;20222;-85
2023/05/02 02:16:33;;;;;;;8.10;5.00;;;;;;;12.94;81.52;95511.47;5016697;28;20294;-84
2023/05/02 02:18:58;;;;;;;8.00;5.50;;;;;;;12.79;82.11;95514.25;5022141;28;20496;-88
2023/05/02 02:21:25;;;;;;;8.20;5.50;;;;;;;12.77;82.11;95511.84;5014451;28;20253;-85
2023/05/02 02:23:51;;;;;;;10.33;6.00;;;;;;;12.73;82.15;95523.72;5024487;28;20245;-87
2023/05/02 02:26:17;;;;;;;7.80;5.20;;;;;;;12.76;81.89;95520.72;5031281;28;20245;-87
2023/05/02 02:28:42;;;;;;;5.90;5.10;;;;;;;12.77;81.97;95517.09;5025025;28;20312;-87
2023/05/02 02:31:07;;;;;;;8.30;5.00;;;;;;;12.76;82.16;95520.72;5019188;28;20230;-87
2023/05/02 02:33:33;;;;;;;8.83;5.43;;;;;;;12.74;82.36;95517.50;5024013;28;20234;-86
2023/05/02 02:36:07;;;;;;;8.33;5.30;;;;;;;12.64;82.63;95521.47;5048074;28;20222;-84
2023/05/02 02:38:44;;;;;;;9.23;5.50;;;;;;;12.59;82.98;95519.44;5044846;28;20229;-87
2023/05/02 02:41:17;;;;;;;9.23;5.40;;;;;;;12.59;82.83;95516.81;5023803;28;20261;-86
2023/05/02 02:44:01;;;;;;;8.70;5.60;;;;;;;12.55;82.86;95526.13;5058121;28;20234;-87
2023/05/02 02:47:04;;;;;;;8.20;5.70;;;;;;;12.67;82.49;95526.34;5031947;28;20309;-87
2023/05/02 02:50:11;;;;;;;7.13;5.33;;;;;;;12.49;83.24;95516.38;5033411;28;20257;-88
2023/05/02 02:52:59;;;;;;;10.97;5.53;;;;;;;12.44;83.67;95525.88;5028926;28;20257;-85
2023/05/02 02:55:52;;;;;;;8.43;5.80;;;;;;;12.54;82.92;95521.03;5034446;28;20229;-86
2023/05/02 02:58:20;;;;;;;8.70;5.77;;;;;;;12.52;83.70;95528.31;5028762;28;20226;-86
2023/05/02 03:00:46;;;;;;;7.70;5.80;;;;;;;12.44;83.97;95533.75;5042198;28;20230;-85
2023/05/02 03:03:13;;;;;;;9.47;5.50;;;;;;;12.47;83.72;95539.41;5030950;28;20223;-84
2023/05/02 03:05:38;;;;;;;9.97;6.00;;;;;;;12.39;84.21;95534.34;5020014;28;20258;-84
2023/05/02 03:08:04;;;;;;;9.27;5.67;;;;;;;12.38;84.19;95540.56;5024751;28;20230;-84
2023/05/02 03:10:30;;;;;;;7.50;5.90;;;;;;;12.45;83.80;95541.41;5017910;28;20572;-84
2023/05/02 03:13:00;;;;;;;8.73;5.90;;;;;;;12.58;82.92;95546.72;5000690;28;20314;-84
2023/05/02 03:15:47;;;;;;;9.87;5.57;;;;;;;12.57;82.90;95555.59;5042187;28;20229;-84
2023/05/02 03:18:16;;;;;;;10.20;5.57;;;;;;;12.60;82.67;95549.16;5033768;28;20219;-84
2023/05/02 03:20:41;;;;;;;8.50;5.60;;;;;;;12.71;82.34;95559.91;5020861;28;20231;-84
2023/05/02 03:23:07;;;;;;;9.60;5.87;;;;;;;12.80;82.19;95557.94;5022691;28;20215;-83
2023/05/02 03:25:33;;;;;;;8.83;6.00;;;;;;;12.73;82.02;95559.69;5041496;28;20397;-88
2023/05/02 03:27:58;;;;;;;14.90;6.13;;;;;;;12.61;83.17;95563.91;5007023;28;20303;-83
2023/05/02 03:30:24;;;;;;;8.33;5.80;;;;;;;12.66;82.16;95564.13;5037401;28;20257;-82
2023/05/02 03:32:49;;;;;;;9.33;5.90;;;;;;;12.73;82.55;95562.31;5016987;28;20230;-82
2023/05/02 03:35:15;;;;;;;9.80;6.60;;;;;;;12.69;82.50;95555.84;5018251;28;20234;-83
2023/05/02 03:37:41;;;;;;;9.43;5.70;;;;;;;12.86;81.24;95562.38;5026485;28;20238;-82
2023/05/02 03:40:07;;;;;;;10.90;5.83;;;;;;;12.76;82.17;95557.50;5037428;28;20243;-83
2023/05/02 03:42:38;;;;;;;9.13;6.47;;;;;;;12.77;81.98;95556.50;5016156;28;20230;-84
2023/05/02 03:45:05;;;;;;;9.03;6.40;;;;;;;12.63;82.29;95556.66;5015989;28;20240;-85
2023/05/02 03:47:30;;;;;;;10.57;6.60;;;;;;;12.79;81.65;95562.38;5031704;28;20223;-86
2023/05/02 03:49:56;;;;;;;10.27;6.00;;;;;;;12.83;81.34;95568.03;5028208;28;20231;-85
2023/05/02 03:52:22;;;;;;;13.27;6.70;;;;;;;12.75;81.49;95563.75;5008469;28;20226;-86
2023/05/02 03:54:47;;;;;;;9.87;6.37;;;;;;;12.68;82.09;95560.28;5017108;28;20238;-85
2023/05/02 03:57:13;;;;;;;8.63;6.10;;;;;;;12.73;81.57;95570.19;5000728;28;20234;-85
2023/05/02 03:59:41;;;;;;;8.67;5.80;;;;;;;12.90;80.94;95562.81;5017323;28;20242;-86
2023/05/02 04:02:07;;;;;;;9.63;5.83;;;;;;;12.84;81.09;95561.78;5014621;28;20246;-86
2023/05/02 04:04:34;;;;;;;8.53;5.80;;;;;;;12.85;80.60;95561.56;5023441;28;20234;-86
2023/05/02 04:07:00;;;;;;;8.77;5.83;;;;;;;12.95;80.35;95563.00;5016761;28;20242;-87
2023/05/02 04:09:26;;;;;;;11.70;5.77;;;;;;;12.95;81.10;95570.88;5027597;28;20231;-88
2023/05/02 04:11:51;;;;;;;7.87;5.70;;;;;;;12.98;81.36;95562.59;5002261;28;20237;-85
2023/05/02 04:14:17;;;;;;;10.43;6.33;;;;;;;13.03;80.76;95566.28;5034614;28;20230;-84
2023/05/02 04:16:51;;;;;;;9.90;6.00;;;;;;;13.11;80.60;95568.72;5010840;28;20230;-86
2023/05/02 04:19:17;;;;;;;11.63;6.03;;;;;;;13.10;80.06;95571.56;5006382;28;20236;-87
2023/05/02 04:21:43;;;;;;;10.97;6.50;;;;;;;13.15;79.99;95567.34;4997403;28;20282;-88
2023/05/02 04:24:08;;;;;;;12.67;6.63;;;;;;;13.16;79.89;95563.69;5020775;28;20246;-84
2023/05/02 04:26:34;;;;;;;9.87;6.50;;;;;;;13.16;80.40;95563.69;5038799;28;20218;-84
2023/05/02 04:29:00;;;;;;;11.67;6.40;;;;;;;13.12;79.26;95573.00;5035995;28;20230;-86
2023/05/02 04:31:26;;;;;;;12.57;6.40;;;;;;;13.06;79.13;95567.72;5033955;28;20237;-87
2023/05/02 04:33:51;;;;;;;10.83;6.13;;;;;;;13.07;78.98;95571.97;5025015;28;20229;-87
2023/05/02 04:36:18;;;;;;;12.13;6.27;;;;;;;13.28;78.83;95569.16;5029337;28;20218;-86
2023/05/02 04:38:43;;;;;;;9.97;6.20;;;;;;;13.17;77.54;95572.38;5021196;28;20229;-86
2023/05/02 04:41:09;;;;;;;12.37;5.90;;;;;;;13.33;77.25;95578.09;5029088;28;20273;-85
2023/05/02 04:43:34;;;;;;;10.73;6.37;;;;;;;13.60;76.16;95583.38;5033521;28;20234;-86
2023/05/02 04:46:00;;;;;;;8.80;5.77;;;;;;;13.50;76.91;95581.94;5028241;28;20223;-86
2023/05/02 04:48:25;;;;;;;10.10;6.10;;;;;;;13.52;75.45;95579.94;5018976;28;20210;-86
2023/05/02 04:50:52;;;;;;;13.50;6.40;;;;;;;13.58;75.55;95580.13;5018805;28;20223;-86
2023/05/02 04:53:18;;;;;;;11.40;5.70;;;;;;;13.62;75.39;95569.00;5027125;28;20226;-86
2023/05/02 04:55:43;;;;;;;12.03;6.13;;;;;;;13.84;74.66;95578.31;5040721;28;20286;-88
2023/05/02 04:58:09;;;;;;;10.67;6.10;;;;;;;13.91;74.10;95575.69;5031141;28;20222;-85
2023/05/02 05:00:34;;;;;;;11.07;6.80;;;;;;;13.93;73.08;95585.00;5018868;28;20232;-86
2023/05/02 05:03:00;;;;;;;13.57;6.20;;;;;;;14.69;70.63;95586.06;5006216;28;20226;-87
2023/05/02 05:05:25;;;;;;;13.97;5.90;;;;;;;16.96;62.54;95585.53;5023981;28;20288;-86
2023/05/02 05:07:51;;;;;;;10.37;5.30;;;;;;;17.54;58.64;95592.94;5045317;28;20338;-86
2023/05/02 05:10:17;;;;;;;12.37;5.63;;;;;;;18.16;56.27;95587.06;5042018;28;20236;-85
2023/05/02 05:12:42;;;;;;;8.93;5.40;;;;;;;17.59;58.59;95587.75;5029973;28;20244;-87
2023/05/02 05:15:08;;;;;;;13.33;5.43;;;;;;;17.24;59.88;95583.13;5032197;28;20230;-87
2023/05/02 05:17:33;;;;;;;10.30;5.17;;;;;;;18.22;56.55;95591.44;4997952;28;20226;-85
2023/05/02 05:19:59;;;;;;;9.40;5.30;;;;;;;19.00;53.32;95594.47;5012320;28;20245;-85
2023/05/02 05:22:24;;;;;;;9.73;4.90;;;;;;;18.50;53.38;95591.56;4998980;28;20231;-85
2023/05/02 05:24:54;;;;;;;6.03;4.70;;;;;;;17.82;56.00;95591.28;5025100;28;20711;-85
2023/05/02 05:27:19;;;;;;;8.43;5.23;;;;;;;16.86;58.48;95593.16;5008147;28;20256;-83
2023/05/02 05:29:45;;;;;;;10.50;4.90;;;;;;;17.30;57.07;95592.81;5041637;28;20696;-84
2023/05/02 05:32:10;;;;;;;7.27;4.83;;;;;;;16.80;59.22;95596.72;5025673;28;20253;-85
2023/05/02 05:34:36;;;;;;;9.47;4.50;;;;;;;16.62;58.93;95599.38;5014579;28;20280;-82
2023/05/02 05:37:01;;;;;;;12.50;4.70;;;;;;;16.07;59.77;95599.25;5022742;28;20233;-83
2023/05/02 05:39:27;;;;;;;5.80;4.50;;;;;;;16.13;60.30;95600.22;5020975;28;20234;-84
2023/05/02 05:41:53;;;;;;;9.63;4.60;;;;;;;15.99;59.85;95601.34;5046137;28;20226;-84
2023/05/02 05:44:20;;;;;;;8.53;4.53;;;;;;;16.23;59.95;95603.19;5037119;28;20282;-85
2023/05/02 05:46:46;;;;;;;5.53;4.20;;;;;;;16.70;59.54;95605.16;5002803;28;20281;-83
2023/05/02 05:49:12;;;;;;;6.97;4.10;;;;;;;16.46;58.45;95607.81;5024056;28;20235;-85
2023/05/02 05:51:37;;;;;;;5.93;4.30;;;;;;;15.99;59.13;95604.81;5016203;28;20241;-84
2023/05/02 05:54:03;;;;;;;8.77;4.50;;;;;;;16.18;59.85;95606.47;5042896;28;20226;-84
2023/05/02 05:56:28;;;;;;;8.83;4.63;;;;;;;16.57;58.08;95600.03;5040972;28;20234;-84
2023/05/02 05:58:54;;;;;;;10.47;4.60;;;;;;;16.56;59.41;95606.34;5004318;28;20280;-85
2023/05/02 06:01:19;;;;;;;8.50;4.60;;;;;;;16.44;59.01;95610.69;5023339;28;20226;-83
2023/05/02 06:03:45;;;;;;;7.77;4.60;;;;;;;16.73;59.08;95609.19;5025879;28;20226;-85
2023/05/02 06:06:10;;;;;;;8.93;4.70;;;;;;;16.92;57.99;95617.94;5036705;28;20219;-83
2023/05/02 06:08:36;;;;;;;6.97;4.70;;;;;;;16.89;58.17;95618.38;5004428;28;20223;-85
2023/05/02 06:11:01;;;;;;;7.80;4.73;;;;;;;16.73;57.45;95617.13;5016415;28;20230;-84
2023/05/02 06:13:27;;;;;;;6.50;4.43;;;;;;;16.63;57.90;95611.53;5039168;28;20233;-84
2023/05/02 06:15:53;;;;;;;7.90;4.47;;;;;;;16.73;57.77;95617.94;5025759;28;20230;-84
2023/05/02 06:18:18;;;;;;;7.83;4.40;;;;;;;16.87;58.39;95615.94;5017390;28;20233;-86
2023/05/02 06:20:44;;;;;;;6.87;4.60;;;;;;;16.70;58.00;95609.63;5038742;28;20234;-84
2023/05/02 06:23:09;;;;;;;10.30;4.50;;;;;;;16.71;58.71;95608.63;5014102;28;20237;-83
2023/05/02 06:25:37;;;;;;;9.87;4.70;;;;;;;16.73;58.29;95606.56;5028992;28;20245;-85
2023/05/02 06:28:03;;;;;;;8.00;4.30;;;;;;;16.86;56.75;95606.38;5043782;28;20256;-86
2023/05/02 06:30:28;;;;;;;6.83;4.03;;;;;;;16.64;55.00;95605.25;5034591;28;20258;-85
2023/05/02 06:32:54;;;;;;;6.10;4.00;;;;;;;16.75;55.08;95597.38;5035590;28;20222;-85
2023/05/02 06:35:19;;;;;;;9.83;4.00;;;;;;;16.38;55.31;95611.59;5007406;28;20226;-87
2023/05/02 06:37:45;;;;;;;5.57;3.73;;;;;;;16.41;55.07;95608.47;4994967;28;20219;-85
2023/05/02 06:40:12;;;;;;;5.00;4.00;;;;;;;16.95;53.96;95599.81;5035351;28;20231;-84
2023/05/02 06:42:38;;;;;;;6.30;3.90;;;;;;;17.08;54.91;95602.25;5006546;28;20225;-84
2023/05/02 06:45:03;;;;;;;9.63;3.90;;;;;;;17.16;53.68;95593.22;5016380;28;20226;-84
2023/05/02 06:47:29;;;;;;;6.57;4.30;;;;;;;17.35;53.18;95598.25;5034930;28;20227;-84
2023/05/02 06:49:55;;;;;;;8.27;4.40;;;;;;;17.42;54.25;95604.25;5036191;28;20243;-86
2023/05/02 06:52:20;;;;;;;8.03;4.13;;;;;;;17.13;52.83;95591.00;5028359;28;20229;-88
2023/05/02 06:54:45;;;;;;;7.00;4.07;;;;;;;17.35;52.90;95595.59;5006769;28;20605;-84
2023/05/02 06:57:11;;;;;;;7.70;4.10;;;;;;;17.24;52.77;95592.91;5026923;28;20222;-86
2023/05/02 06:59:36;;;;;;;8.80;3.80;;;;;;;17.29;52.72;95590.41;5035988;28;20249;-84
2023/05/02 07:02:02;;;;;;;7.57;3.77;;;;;;;17.43;51.66;95592.63;5019232;28;20219;-85
2023/05/02 07:04:27;;;;;;;11.27;4.10;;;;;;;17.74;50.86;95585.50;5034902;28;20238;-85
2023/05/02 07:06:53;;;;;;;10.63;3.93;;;;;;;17.92;51.48;95585.41;5024512;28;20229;-84
2023/05/02 07:09:18;;;;;;;7.37;3.73;;;;;;;17.92;49.78;95596.00;5028671;28;20226;-85
2023/05/02 07:11:44;;;;;;;7.50;3.53;;;;;;;17.77;49.97;95588.50;5036532;28;20265;-84
2023/05/02 07:14:09;;;;;;;6.87;3.70;;;;;;;17.59;50.54;95587.75;5023612;28;20223;-84
2023/05/02 07:16:35;;;;;;;6.57;3.87;;;;;;;18.12;49.83;95594.66;5028861;28;20237;-83
2023/05/02 07:19:03;;;;;;;9.13;3.60;;;;;;;18.42;49.62;95591.06;5021403;28;20230;-85
2023/05/02 07:21:29;;;;;;;10.87;3.53;;;;;;;18.32;47.99;95596.94;5019937;28;20282;-85
2023/05/02 07:23:56;;;;;;;3.80;3.30;;;;;;;17.99;46.98;95597.53;5027078;28;20237;-85
2023/05/02 07:26:22;;;;;;;9.77;3.70;;;;;;;17.60;48.79;95587.53;5024057;28;20232;-86
2023/05/02 07:28:48;;;;;;;9.97;3.57;;;;;;;17.91;48.53;95597.06;5005322;28;20226;-86
2023/05/02 07:31:13;;;;;;;7.33;3.50;;;;;;;17.97;47.75;95601.44;5037297;28;20226;-83
2023/05/02 07:33:38;;;;;;;8.20;3.63;;;;;;;18.20;47.53;95596.16;5016339;28;20231;-86
2023/05/02 07:36:04;;;;;;;5.27;3.20;;;;;;;18.67;46.75;95594.31;4998509;28;20230;-83
2023/05/02 07:38:30;;;;;;;8.03;3.60;;;;;;;19.16;47.86;95606.19;5036646;28;20222;-82
2023/05/02 07:40:59;;;;;;;4.93;3.20;;;;;;;18.72;46.37;95597.88;5027975;28;20222;-83
2023/05/02 07:43:25;;;;;;;9.20;3.53;;;;;;;18.16;46.78;95597.66;5022053;28;20219;-82
2023/05/02 07:45:51;;;;;;;8.93;3.37;;;;;;;18.49;46.72;95599.75;5051088;28;20309;-87
2023/05/02 07:48:16;;;;;;;6.40;3.20;;;;;;;18.07;47.59;95599.03;5045205;28;20241;-86
2023/05/02 07:50:42;;;;;;;6.43;3.77;;;;;;;18.10;46.45;95601.22;5034140;28;20234;-85
2023/05/02 07:53:08;;;;;;;6.43;3.40;;;;;;;18.43;46.24;95600.66;5020134;28;20298;-84
2023/05/02 07:55:33;;;;;;;6.27;3.33;;;;;;;18.68;46.57;95591.44;5023808;28;20230;-83
2023/05/02 07:57:59;;;;;;;6.03;3.30;;;;;;;18.78;45.20;95599.59;5036449;28;20223;-86
2023/05/02 08:00:25;;;;;;;6.33;3.33;;;;;;;18.76;46.23;95609.66;5016718;28;20234;-83
2023/05/02 08:02:50;;;;;;;7.20;3.50;;;;;;;18.60;45.94;95598.94;5014234;28;20225;-83
2023/05/02 08:05:16;;;;;;;8.43;3.37;;;;;;;18.96;45.83;95609.28;5010373;28;20226;-84
2023/05/02 08:07:41;;;;;;;6.00;3.60;;;;;;;18.91;45.21;95605.69;5043945;28;20237;-82
2023/05/02 08:10:07;;;;;;;5.57;3.40;;;;;;;19.05;45.26;95599.09;5007447;28;20253;-87
2023/05/02 08:12:39;;;;;;;5.33;3.40;;;;;;;18.86;45.28;95597.63;5043125;28;20407;-84
2023/05/02 08:15:09;;;;;;;12.27;3.30;;;;;;;19.12;45.52;95608.53;5042657;28;20259;-83
2023/05/02 08:17:35;;;;;;;7.20;3.20;;;;;;;19.27;44.70;95605.38;5023893;28;20226;-85
2023/05/02 08:20:00;;;;;;;5.73;3.17;;;;;;;19.36;44.70;95598.66;5021393;28;20249;-85
2023/05/02 08:22:25;;;;;;;5.23;3.30;;;;;;;19.15;44.71;95605.41;5030454;28;20232;-84
2023/05/02 08:24:51;;;;;;;5.03;3.10;;;;;;;19.50;43.88;95597.34;5021850;28;20223;-86
2023/05/02 08:27:16;;;;;;;9.00;3.37;;;;;;;19.60;44.46;95596.72;5032513;28;20276;-84
2023/05/02 08:29:42;;;;;;;4.83;3.43;;;;;;;19.99;43.32;95598.47;5040160;28;20241;-85
2023/05/02 08:32:07;;;;;;;3.77;2.97;;;;;;;19.81;42.80;95602.13;5045751;28;20223;-84
2023/05/02 08:34:33;;;;;;;7.30;3.10;;;;;;;20.09;42.91;95595.94;4999884;28;20235;-83
2023/05/02 08:36:58;;;;;;;7.00;3.10;;;;;;;20.33;42.43;95586.78;4999318;28;20309;-83
2023/05/02 08:39:24;;;;;;;8.43;3.40;;;;;;;20.75;41.33;95605.75;5028295;28;20234;-81
2023/05/02 08:41:49;;;;;;;6.07;2.97;;;;;;;20.06;40.89;95596.44;5031700;28;20332;-81
2023/05/02 08:44:15;;;;;;;6.37;3.20;;;;;;;20.56;42.56;95599.09;5035978;28;20231;-83
2023/05/02 08:46:42;;;;;;;5.10;3.27;;;;;;;20.79;40.90;95607.66;5038621;28;20226;-84
2023/05/02 08:49:09;;;;;;;5.07;3.20;;;;;;;20.73;41.48;95597.19;5004399;28;20235;-83
2023/05/02 08:51:35;;;;;;;9.97;3.67;;;;;;;20.49;40.78;95591.25;5011972;28;20226;-84
2023/05/02 08:54:02;;;;;;;7.17;3.07;;;;;;;20.75;40.00;95595.88;5011110;28;20238;-82
2023/05/02 08:56:27;;;;;;;5.57;3.27;;;;;;;20.47;40.98;95597.88;5023818;28;20260;-80
2023/05/02 08:58:53;;;;;;;7.67;3.07;;;;;;;20.66;41.15;95600.03;5016224;28;20221;-80
2023/05/02 09:01:20;;;;;;;7.10;3.30;;;;;;;20.27;40.38;95589.63;5025546;28;20256;-81
2023/05/02 09:03:46;;;;;;;9.00;3.10;;;;;;;20.54;40.94;95596.66;5004237;28;20310;-84
2023/05/02 09:06:15;;;;;;;5.80;2.97;;;;;;;20.29;42.99;95584.84;5028381;28;20226;-80
2023/05/02 09:08:41;;;;;;;7.20;3.20;;;;;;;20.59;42.09;95579.97;5013764;28;20295;-83
2023/05/02 09:11:08;;;;;;;4.07;2.90;;;;;;;20.81;39.93;95583.47;5022343;28;20468;-81
2023/05/02 09:13:40;;;;;;;8.53;3.10;;;;;;;20.01;41.08;95577.75;5011882;28;20219;-84
2023/05/02 09:16:08;;;;;;;4.30;2.90;;;;;;;19.57;42.28;95581.25;5024261;28;20233;-81
2023/05/02 09:18:37;;;;;;;10.30;3.27;;;;;;;20.35;41.50;95575.91;5016624;28;20222;-81
2023/05/02 09:21:08;;;;;;;8.33;3.10;;;;;;;20.44;40.94;95580.59;5037790;28;20229;-81
2023/05/02 09:23:40;;;;;;;5.23;2.80;;;;;;;20.76;39.36;95578.06;5039561;28;20241;-80
2023/05/02 09:26:35;;;;;;;5.50;2.90;;;;;;;20.92;39.68;95574.53;5017430;28;20227;-83
2023/05/02 09:29:04;;;;;;;7.90;2.90;;;;;;;20.61;39.61;95577.88;5032916;28;20227;-79
2023/05/02 09:31:36;;;;;;;5.83;2.93;;;;;;;20.97;40.11;95571.16;5024164;28;20258;-79
2023/05/02 09:34:12;;;;;;;5.43;2.97;;;;;;;21.02;38.47;95566.69;5030341;28;20235;-81
2023/05/02 09:36:49;;;;;;;5.07;2.70;;;;;;;21.10;39.25;95570.81;5017245;28;20233;-80
2023/05/02 09:39:16;;;;;;;4.87;2.90;;;;;;;21.37;37.46;95574.31;5036159;28;20763;-80
2023/05/02 09:41:45;;;;;;;9.53;3.20;;;;;;;21.46;38.13;95575.47;5020272;28;20238;-82
2023/05/02 09:44:18;;;;;;;4.10;2.90;;;;;;;21.07;37.49;95563.31;5046254;28;20237;-82
2023/05/02 09:46:45;;;;;;;6.63;3.10;;;;;;;21.52;37.78;95560.34;5014865;28;20226;-82
2023/05/02 09:49:11;;;;;;;4.83;2.80;;;;;;;20.97;37.26;95563.97;5026015;28;20226;-81
2023/05/02 09:51:37;;;;;;;7.60;2.83;;;;;;;21.11;37.89;95564.44;5017851;28;20703;-79
2023/05/02 09:54:03;;;;;;;5.00;2.90;;;;;;;21.65;37.90;95557.25;4998659;28;20238;-79
2023/05/02 09:56:28;;;;;;;6.03;2.70;;;;;;;21.60;37.26;95551.88;5035575;28;20241;-78
2023/05/02 09:59:16;;;;;;;4.00;2.90;;;;;;;21.44;36.63;95546.44;5014539;28;20279;-79
2023/05/02 10:01:41;;;;;;;4.78;2.78;;;;;;;21.21;38.02;95551.22;5038877;28;20293;-82
2023/05/02 10:04:15;;;;;;;5.10;2.90;;;;;;;21.80;36.51;95547.56;5016400;28;20230;-79
2023/05/02 10:06:42;;;;;;;5.93;3.00;;;;;;;22.09;35.84;95538.19;5020146;28;20257;-80
2023/05/02 10:09:09;;;;;;;6.77;2.70;;;;;;;22.45;36.49;95549.13;5027492;28;20230;-81
2023/05/02 10:11:34;;;;;;;6.53;2.80;;;;;;;21.92;36.94;95542.06;5026109;28;20222;-80
2023/05/02 10:14:00;;;;;;;5.13;2.90;;;;;;;22.07;36.20;95536.84;5008298;28;20409;-80
2023/05/02 10:16:27;;;;;;;5.07;2.90;;;;;;;22.41;35.88;95540.00;5037060;28;20479;-81
2023/05/02 10:19:06;;;;;;;7.67;2.73;;;;;;;22.26;34.54;95530.03;5015212;28;20235;-80
2023/05/02 10:21:31;;;;;;;6.23;2.80;;;;;;;21.97;34.46;95528.78;5018878;28;20226;-81
2023/05/02 10:23:58;;;;;;;5.57;2.70;;;;;;;21.90;35.83;95533.53;5020317;28;20229;-80
2023/05/02 10:26:23;;;;;;;4.35;2.60;;;;;;;21.81;35.17;95532.34;5029614;28;20309;-79
2023/05/02 10:28:49;;;;;;;5.63;2.60;;;;;;;21.75;35.00;95525.38;5016407;28;20234;-80
2023/05/02 10:31:16;;;;;;;5.17;2.60;;;;;;;21.88;34.95;95522.31;5036309;28;20230;-80
2023/05/02 10:33:41;;;;;;;7.90;2.70;;;;;;;21.93;35.20;95515.16;5040638;28;20241;-76
2023/05/02 10:36:17;;;;;;;6.10;2.80;;;;;;;21.93;34.46;95519.69;5032331;28;20223;-81
2023/05/02 10:38:42;;;;;;;5.70;2.60;;;;;;;22.16;35.55;95521.19;5024269;28;20344;-79
2023/05/02 10:41:16;;;;;;;5.95;2.65;;;;;;;22.01;35.46;95519.22;5006957;28;20277;-79
2023/05/02 10:43:45;;;;;;;5.40;2.65;;;;;;;22.29;35.86;95504.72;5030104;28;20298;-78
2023/05/02 10:46:36;;;;;;;5.55;2.92;;;;;;;22.34;34.51;95497.56;5026732;28;20652;-82
2023/05/02 10:49:11;;;;;;;8.90;3.17;;;;;;;22.25;34.89;95492.97;5019006;28;20234;-80
2023/05/02 10:51:38;;;;;;;3.77;2.63;;;;;;;22.14;35.07;95506.22;4999370;28;20222;-79
2023/05/02 10:54:16;;;;;;;7.23;2.73;;;;;;;21.93;34.79;95499.16;5026237;28;20233;-80
2023/05/02 10:57:03;;;;;;;8.73;2.77;;;;;;;22.14;35.47;95500.91;5042390;28;20237;-78
2023/05/02 10:59:38;;;;;;;5.07;2.47;;;;;;;21.40;34.93;95501.88;5039982;28;20237;-80
2023/05/02 11:02:23;;;;;;;11.33;3.13;;;;;;;21.56;35.16;95500.97;5021396;28;20293;-83
2023/05/02 11:05:02;;;;;;;5.18;2.85;;;;;;;21.34;35.28;95490.38;5037609;28;20246;-80
2023/05/02 11:07:28;;;;;;;5.30;2.90;;;;;;;21.97;36.40;95499.47;5029661;28;20615;-77
2023/05/02 11:10:16;;;;;;;6.63;2.77;;;;;;;22.40;34.56;95493.06;5018591;28;20242;-79
2023/05/02 11:12:51;;;;;;;4.10;2.70;;;;;;;22.02;34.90;95494.16;5025827;28;20254;-82
2023/05/02 11:15:31;;;;;;;4.53;2.70;;;;;;;22.09;36.22;95500.09;5016894;28;20226;-78
2023/05/02 11:18:06;;;;;;;3.38;2.53;;;;;;;22.01;35.66;95493.38;5032474;28;20727;-80
2023/05/02 11:20:35;;;;;;;3.90;2.80;;;;;;;21.55;35.20;95493.22;4998563;28;20265;-81
2023/05/02 11:23:26;;;;;;;5.68;2.78;;;;;;;21.38;36.45;95480.00;5004482;28;20226;-80
2023/05/02 11:25:55;;;;;;;5.43;2.60;;;;;;;21.72;37.56;95477.91;5030154;28;20225;-81
2023/05/02 11:28:37;;;;;;;10.25;2.92;;;;;;;21.39;36.16;95484.31;5017652;28;20241;-78
2023/05/02 11:31:03;;;;;;;6.00;2.57;;;;;;;21.36;35.80;95484.78;5039986;28;20711;-80
2023/05/02 11:33:29;;;;;;;7.90;3.00;;;;;;;21.65;36.41;95487.97;5017375;28;20240;-81
2023/05/02 11:35:56;;;;;;;5.67;2.80;;;;;;;21.68;36.20;95479.47;5039827;28;20222;-80